Time;durP1;ratioP1;P1;durP2;ratioP2;P2;SDS_P1;SDS_P2;PMS_P1;PMS_P2;Temp;Humidity;BMP_temperature;BMP_pressure;BME280_temperature;BME280_humidity;BME280_pressure;Samples;Min_cycle;Max_cycle;Signal;HPM_P1;HPM_P2
2021/01/05 04:09:09;;;;;;;34.65;19.20;;;3.40;99.90;;;;;;5456872;23;20237;-82
2021/01/05 04:11:34;;;;;;;40.15;20.55;;;3.30;99.90;;;;;;4956998;28;20202;-82
2021/01/05 04:14:00;;;;;;;38.92;20.75;;;3.40;99.90;;;;;;4975710;28;20198;-83
2021/01/05 04:16:25;;;;;;;35.92;18.75;;;3.40;99.90;;;;;;4975484;28;20182;-83
2021/01/05 04:18:52;;;;;;;31.48;17.95;;;3.30;99.90;;;;;;4975455;28;20210;-77
2021/01/05 04:21:17;;;;;;;36.67;19.88;;;3.40;99.90;;;;;;4975308;28;20181;-77
2021/01/05 04:23:43;;;;;;;33.83;19.65;;;3.40;99.90;;;;;;4974913;28;20277;-78
2021/01/05 04:26:10;;;;;;;37.85;20.15;;;3.40;99.90;;;;;;4975261;28;20179;-76
2021/01/05 04:28:36;;;;;;;37.40;19.65;;;3.40;99.90;;;;;;4957988;28;20202;-83
2021/01/05 04:31:01;;;;;;;32.40;18.33;;;3.30;99.90;;;;;;4975301;28;20171;-83
2021/01/05 04:33:28;;;;;;;32.08;18.92;;;3.30;99.90;;;;;;4957860;28;20293;-77
2021/01/05 04:35:54;;;;;;;42.08;20.83;;;3.40;99.90;;;;;;4957554;28;20175;-78
2021/01/05 04:38:20;;;;;;;32.33;18.15;;;3.40;99.90;;;;;;4974792;28;20256;-77
2021/01/05 04:40:47;;;;;;;35.08;19.80;;;3.40;99.90;;;;;;4975106;28;20314;-77
2021/01/05 04:43:34;;;;;;;39.40;20.08;;;3.40;99.90;;;;;;4957550;28;20206;-77
2021/01/05 04:46:26;;;;;;;35.00;19.48;;;3.40;99.90;;;;;;4957874;28;20182;-77
2021/01/05 04:48:56;;;;;;;32.60;19.25;;;3.40;99.90;;;;;;4957484;28;20197;-77
2021/01/05 04:51:39;;;;;;;35.20;19.50;;;3.40;99.90;;;;;;4957421;28;20182;-77
2021/01/05 04:54:14;;;;;;;39.00;20.08;;;3.40;99.90;;;;;;4974520;28;20190;-77
2021/01/05 04:57:06;;;;;;;44.25;20.98;;;3.50;99.90;;;;;;4975230;28;20281;-77
2021/01/05 04:59:40;;;;;;;43.50;21.90;;;3.40;99.90;;;;;;4957436;28;20319;-76
2021/01/05 05:02:24;;;;;;;49.97;22.95;;;3.40;99.90;;;;;;4974666;28;20254;-77
2021/01/05 05:05:16;;;;;;;46.97;22.65;;;3.40;99.90;;;;;;4974526;28;20197;-77
2021/01/05 05:08:13;;;;;;;44.00;21.08;;;3.40;99.90;;;;;;4972707;28;20664;-77
2021/01/05 05:11:00;;;;;;;43.53;20.42;;;3.40;99.90;;;;;;4954443;29;20187;-77
2021/01/05 05:13:54;;;;;;;41.53;21.08;;;3.40;99.90;;;;;;4955198;28;20197;-77
2021/01/05 05:16:35;;;;;;;42.40;20.83;;;3.40;99.90;;;;;;4937965;29;20588;-77
2021/01/05 05:19:28;;;;;;;41.15;20.23;;;3.40;99.90;;;;;;4937669;29;20222;-77
2021/01/05 05:22:08;;;;;;;36.90;19.60;;;3.40;99.90;;;;;;4955384;28;20172;-77
2021/01/05 05:24:55;;;;;;;31.63;18.45;;;3.40;99.90;;;;;;4954478;28;20709;-83
2021/01/05 05:27:43;;;;;;;36.47;19.92;;;3.40;99.90;;;;;;4955142;29;20315;-83
2021/01/05 05:30:11;;;;;;;33.58;19.40;;;3.40;99.90;;;;;;4953659;29;20175;-83
2021/01/05 05:32:56;;;;;;;35.38;19.05;;;3.40;99.90;;;;;;4954653;29;20175;-83
2021/01/05 05:35:41;;;;;;;38.05;21.25;;;3.40;99.90;;;;;;4954437;29;20175;-83
2021/01/05 05:38:24;;;;;;;41.83;21.48;;;3.40;99.90;;;;;;4954432;28;20199;-83
2021/01/05 05:41:04;;;;;;;42.95;21.30;;;3.40;99.90;;;;;;4954669;29;20528;-83
2021/01/05 05:43:45;;;;;;;44.17;22.42;;;3.40;99.90;;;;;;4954785;28;20187;-83
2021/01/05 05:46:31;;;;;;;37.30;19.92;;;3.40;99.90;;;;;;4954447;29;20167;-83
2021/01/05 05:49:03;;;;;;;41.72;20.92;;;3.40;99.90;;;;;;4954665;28;20322;-83
2021/01/05 05:51:37;;;;;;;42.38;21.13;;;3.40;99.90;;;;;;4937236;29;20194;-83
2021/01/05 05:54:18;;;;;;;36.08;19.92;;;3.40;99.90;;;;;;4954209;28;20214;-82
2021/01/05 05:57:03;;;;;;;44.25;20.23;;;3.30;99.90;;;;;;4937289;29;20179;-83
2021/01/05 05:59:51;;;;;;;40.17;19.23;;;3.30;99.90;;;;;;4937034;29;20227;-82
2021/01/05 06:02:20;;;;;;;40.53;19.95;;;3.30;99.90;;;;;;4937393;29;20175;-83
2021/01/05 06:04:47;;;;;;;37.47;18.35;;;3.30;99.90;;;;;;4954221;28;20195;-82
2021/01/05 06:07:13;;;;;;;36.70;20.15;;;3.30;99.90;;;;;;4937336;29;20717;-83
2021/01/05 06:09:38;;;;;;;38.25;19.83;;;3.30;99.90;;;;;;4967366;28;20261;-83
2021/01/05 06:12:08;;;;;;;36.10;18.33;;;3.30;99.90;;;;;;4973715;28;20202;-81
2021/01/05 06:14:33;;;;;;;37.33;18.50;;;3.30;99.90;;;;;;4956183;28;20297;-83
2021/01/05 06:16:59;;;;;;;37.25;18.67;;;3.30;99.90;;;;;;4973447;28;20245;-83
2021/01/05 06:19:25;;;;;;;36.65;18.58;;;3.30;99.90;;;;;;4955670;28;20221;-83
2021/01/05 06:21:50;;;;;;;40.60;19.20;;;3.30;99.90;;;;;;4956258;28;20201;-83
2021/01/05 06:24:17;;;;;;;44.13;21.50;;;3.30;99.90;;;;;;4955790;28;20202;-83
2021/01/05 06:26:42;;;;;;;37.00;17.67;;;3.50;99.90;;;;;;4955925;28;20174;-83
2021/01/05 06:29:08;;;;;;;40.20;19.92;;;3.40;99.90;;;;;;4973528;28;20212;-83
2021/01/05 06:31:34;;;;;;;38.78;18.30;;;3.40;99.90;;;;;;4973254;28;20559;-83
2021/01/05 06:33:59;;;;;;;46.30;19.48;;;3.30;99.90;;;;;;4972060;28;20218;-82
2021/01/05 06:36:25;;;;;;;36.83;18.52;;;3.40;99.90;;;;;;4973100;28;20582;-82
2021/01/05 06:38:51;;;;;;;39.83;18.88;;;3.30;99.90;;;;;;4972611;28;20214;-82
2021/01/05 06:41:16;;;;;;;36.85;18.60;;;3.30;99.90;;;;;;4955553;28;20184;-82
2021/01/05 06:43:42;;;;;;;41.20;18.52;;;3.40;99.90;;;;;;4972877;28;20225;-83
2021/01/05 06:46:09;;;;;;;36.42;18.80;;;3.40;99.90;;;;;;4955808;28;20185;-82
2021/01/05 06:48:35;;;;;;;35.00;18.48;;;3.30;99.90;;;;;;4955408;28;20218;-82
2021/01/05 06:51:03;;;;;;;33.83;18.83;;;3.30;99.90;;;;;;4954914;28;20177;-82
2021/01/05 06:53:28;;;;;;;37.53;19.58;;;3.30;99.90;;;;;;4972372;28;20209;-82
2021/01/05 06:55:54;;;;;;;40.47;19.48;;;3.40;99.90;;;;;;4972871;28;20174;-82
2021/01/05 06:58:20;;;;;;;35.45;17.90;;;3.30;99.90;;;;;;4955442;28;20236;-83
2021/01/05 07:00:45;;;;;;;41.13;18.90;;;3.30;99.90;;;;;;4955450;28;20225;-82
2021/01/05 07:03:11;;;;;;;38.30;19.13;;;3.40;99.90;;;;;;4972671;28;20194;-82
2021/01/05 07:05:37;;;;;;;36.28;19.10;;;3.40;99.90;;;;;;4955166;28;20174;-82
2021/01/05 07:08:02;;;;;;;34.65;17.30;;;3.40;99.90;;;;;;4972738;28;20171;-82
2021/01/05 07:10:28;;;;;;;39.30;18.95;;;3.40;99.90;;;;;;4954694;28;20246;-81
2021/01/05 07:12:54;;;;;;;33.42;17.15;;;3.40;99.90;;;;;;4954817;28;20222;-83
2021/01/05 07:15:20;;;;;;;33.78;17.38;;;3.50;99.90;;;;;;4972576;28;20207;-81
2021/01/05 07:17:46;;;;;;;33.05;17.42;;;3.40;99.90;;;;;;4955278;28;20549;-82
2021/01/05 07:20:13;;;;;;;31.40;16.10;;;3.40;99.90;;;;;;4954857;28;20345;-82
2021/01/05 07:22:39;;;;;;;31.05;15.50;;;3.40;99.90;;;;;;4955390;28;20724;-82
2021/01/05 07:25:07;;;;;;;28.00;16.80;;;3.40;99.90;;;;;;4954864;28;20290;-82
2021/01/05 07:27:32;;;;;;;25.75;14.98;;;3.30;99.90;;;;;;4972774;28;20221;-83
2021/01/05 07:29:58;;;;;;;27.25;14.48;;;3.30;99.90;;;;;;4972521;28;20621;-83
2021/01/05 07:32:24;;;;;;;25.05;14.85;;;3.40;99.90;;;;;;4972711;28;20645;-81
2021/01/05 07:34:50;;;;;;;26.27;15.38;;;3.40;99.90;;;;;;4972522;28;20248;-82
2021/01/05 07:37:21;;;;;;;27.77;14.48;;;3.40;99.90;;;;;;4955565;28;20393;-82
2021/01/05 07:39:47;;;;;;;24.60;15.15;;;3.40;99.90;;;;;;4972066;28;20379;-82
2021/01/05 07:42:39;;;;;;;27.90;15.93;;;3.40;99.90;;;;;;4972954;28;20740;-82
2021/01/05 07:45:14;;;;;;;27.40;15.63;;;3.40;99.90;;;;;;4953639;28;20583;-82
2021/01/05 07:47:40;;;;;;;26.65;15.32;;;3.30;99.90;;;;;;4958826;28;20174;-83
2021/01/05 07:50:08;;;;;;;30.73;15.98;;;3.30;99.90;;;;;;4958605;28;20205;-80
2021/01/05 07:52:33;;;;;;;26.77;16.00;;;3.30;99.90;;;;;;4958615;28;20178;-80
2021/01/05 07:55:00;;;;;;;32.33;16.30;;;3.40;99.90;;;;;;4958598;28;20694;-80
2021/01/05 07:57:25;;;;;;;32.00;16.83;;;3.40;99.90;;;;;;4958683;28;20186;-80
2021/01/05 07:59:51;;;;;;;29.70;16.88;;;3.40;99.90;;;;;;4958558;28;20218;-78
2021/01/05 08:02:17;;;;;;;30.95;16.90;;;3.40;99.90;;;;;;4975848;28;20637;-79
2021/01/05 08:04:43;;;;;;;28.55;16.13;;;3.40;99.90;;;;;;4975581;28;20269;-78
2021/01/05 08:07:10;;;;;;;28.38;15.10;;;3.40;99.90;;;;;;4993989;28;20181;-79
2021/01/05 08:09:40;;;;;;;30.13;15.63;;;3.40;99.90;;;;;;4977333;28;20723;-79
2021/01/05 08:12:11;;;;;;;30.88;16.73;;;3.40;99.90;;;;;;4994956;28;20184;-79
2021/01/05 08:14:37;;;;;;;30.95;17.00;;;3.40;99.90;;;;;;4994602;28;20209;-80
2021/01/05 08:17:03;;;;;;;29.02;15.45;;;3.40;99.90;;;;;;4977356;28;20181;-80
2021/01/05 08:19:29;;;;;;;28.65;16.50;;;3.40;99.90;;;;;;4994797;28;20296;-77
2021/01/05 08:21:55;;;;;;;30.48;16.90;;;3.50;99.90;;;;;;4977354;28;20170;-78
2021/01/05 08:24:20;;;;;;;28.00;15.55;;;3.50;99.90;;;;;;4994583;28;20202;-77
2021/01/05 08:26:46;;;;;;;28.00;15.70;;;3.50;99.90;;;;;;4977312;28;20186;-79
2021/01/05 08:29:12;;;;;;;27.15;15.75;;;3.50;99.90;;;;;;4976995;28;20232;-76
2021/01/05 08:31:42;;;;;;;29.15;15.32;;;3.50;99.90;;;;;;4994812;28;20170;-77
2021/01/05 08:34:08;;;;;;;26.58;15.50;;;3.50;99.90;;;;;;4977285;28;20655;-78
2021/01/05 08:36:34;;;;;;;26.48;15.18;;;3.50;99.90;;;;;;4976905;28;20185;-78
2021/01/05 08:39:01;;;;;;;20.67;14.35;;;3.50;99.90;;;;;;4975762;28;20742;-77
2021/01/05 08:41:27;;;;;;;24.13;14.70;;;3.50;99.90;;;;;;4994567;28;20261;-77
2021/01/05 08:43:56;;;;;;;20.50;13.32;;;3.50;99.90;;;;;;4993455;28;20200;-77
2021/01/05 08:46:27;;;;;;;22.50;14.48;;;3.50;99.90;;;;;;4976840;28;20170;-77
2021/01/05 08:48:53;;;;;;;22.23;13.68;;;3.50;99.90;;;;;;4971083;28;20289;-77
2021/01/05 08:51:21;;;;;;;21.00;14.40;;;3.40;99.90;;;;;;4943053;28;20183;-78
2021/01/05 08:53:48;;;;;;;22.42;16.95;;;3.40;99.90;;;;;;4962058;28;20412;-80
2021/01/05 08:56:25;;;;;;;24.90;17.15;;;3.40;99.90;;;;;;4944664;28;21013;-79
2021/01/05 08:58:51;;;;;;;18.55;13.73;;;3.40;99.90;;;;;;4945998;28;20305;-79
2021/01/05 09:01:17;;;;;;;19.98;13.68;;;3.40;99.90;;;;;;4965279;28;20269;-79
2021/01/05 09:03:44;;;;;;;20.58;14.23;;;3.50;99.90;;;;;;4964424;28;20195;-79
2021/01/05 09:06:13;;;;;;;17.15;12.15;;;3.50;99.90;;;;;;4963503;28;20656;-78
2021/01/05 09:08:40;;;;;;;17.90;12.35;;;3.50;99.90;;;;;;4958164;28;20218;-79
2021/01/05 09:11:08;;;;;;;19.60;12.90;;;3.50;99.90;;;;;;4975915;28;20186;-79
2021/01/05 09:13:36;;;;;;;20.52;13.23;;;3.50;99.90;;;;;;4977671;28;20230;-78
2021/01/05 09:16:02;;;;;;;18.85;13.10;;;3.50;99.90;;;;;;4965388;28;20182;-78
2021/01/05 09:18:28;;;;;;;18.80;12.57;;;3.50;99.90;;;;;;4983524;28;20210;-79
2021/01/05 09:20:56;;;;;;;19.80;14.05;;;3.50;99.90;;;;;;4982441;28;20317;-79
2021/01/05 09:23:23;;;;;;;19.25;13.02;;;3.50;99.90;;;;;;4966653;28;20203;-79
2021/01/05 09:25:55;;;;;;;20.27;12.82;;;3.50;99.90;;;;;;4964541;28;20178;-79
2021/01/05 09:28:24;;;;;;;18.67;13.02;;;3.50;99.90;;;;;;4984808;28;20198;-75
2021/01/05 09:30:51;;;;;;;18.13;12.43;;;3.50;99.90;;;;;;4978087;28;20182;-75
2021/01/05 09:33:18;;;;;;;18.55;12.65;;;3.50;99.90;;;;;;4982364;28;20208;-75
2021/01/05 09:35:44;;;;;;;17.90;12.82;;;3.70;99.90;;;;;;4983905;28;20258;-75
2021/01/05 09:38:10;;;;;;;16.70;12.13;;;3.50;99.90;;;;;;4965031;28;20288;-76
2021/01/05 09:40:41;;;;;;;18.58;13.23;;;3.60;99.90;;;;;;4984611;28;20391;-80
2021/01/05 09:43:09;;;;;;;20.95;12.77;;;3.60;99.90;;;;;;4968853;28;20194;-77
2021/01/05 09:45:36;;;;;;;22.55;13.95;;;3.60;99.90;;;;;;4988041;28;20272;-79
2021/01/05 09:48:14;;;;;;;20.30;13.13;;;3.70;99.90;;;;;;4988667;28;20540;-78
2021/01/05 09:50:41;;;;;;;19.73;12.68;;;3.60;99.90;;;;;;4976701;28;20208;-78
2021/01/05 09:53:07;;;;;;;19.55;13.25;;;3.60;99.90;;;;;;4956777;28;20308;-76
2021/01/05 09:55:33;;;;;;;18.95;13.23;;;3.60;99.90;;;;;;4982376;28;20185;-78
2021/01/05 09:58:00;;;;;;;22.33;12.40;;;3.60;99.90;;;;;;4987857;28;20178;-78
2021/01/05 10:00:26;;;;;;;23.20;13.07;;;3.60;99.90;;;;;;4986456;28;20212;-77
2021/01/05 10:02:52;;;;;;;18.75;13.32;;;3.60;99.90;;;;;;4987215;28;20587;-77
2021/01/05 10:05:18;;;;;;;21.50;13.30;;;3.80;99.90;;;;;;4974814;28;20652;-78
2021/01/05 10:07:45;;;;;;;19.35;12.45;;;3.60;99.90;;;;;;4991702;28;20185;-78
2021/01/05 10:10:18;;;;;;;18.15;12.55;;;3.70;99.90;;;;;;4991518;28;20339;-78
2021/01/05 10:12:43;;;;;;;19.98;12.93;;;3.70;99.90;;;;;;4968559;28;20178;-78
2021/01/05 10:15:15;;;;;;;20.70;12.82;;;3.70;99.90;;;;;;4981687;28;20178;-78
2021/01/05 10:17:40;;;;;;;18.63;12.27;;;3.70;99.90;;;;;;4963586;28;20260;-78
2021/01/05 10:20:09;;;;;;;21.38;12.88;;;3.60;99.90;;;;;;4966180;28;20304;-77
2021/01/05 10:22:35;;;;;;;22.27;13.50;;;3.70;99.90;;;;;;4987565;28;20265;-78
2021/01/05 10:25:01;;;;;;;18.67;12.05;;;3.70;99.90;;;;;;4984389;28;20719;-79
2021/01/05 10:27:27;;;;;;;18.73;12.77;;;3.70;99.90;;;;;;4971904;28;20206;-80
2021/01/05 10:29:55;;;;;;;19.98;12.60;;;3.70;99.90;;;;;;4989468;28;20202;-78
2021/01/05 10:32:22;;;;;;;19.88;14.23;;;3.70;99.90;;;;;;4981701;28;20228;-76
2021/01/05 10:34:48;;;;;;;17.20;11.35;;;3.70;99.90;;;;;;4981972;28;20728;-80
2021/01/05 10:37:13;;;;;;;20.73;13.15;;;3.70;99.90;;;;;;4965148;28;20187;-83
2021/01/05 10:39:39;;;;;;;17.70;12.45;;;3.80;99.90;;;;;;4959686;28;20220;-78
2021/01/05 10:42:06;;;;;;;19.88;12.77;;;3.70;99.90;;;;;;4966241;28;20214;-82
2021/01/05 10:44:31;;;;;;;18.77;13.25;;;3.70;99.90;;;;;;4955907;28;20257;-79
2021/01/05 10:46:58;;;;;;;20.65;13.57;;;3.70;99.90;;;;;;4972894;28;20580;-79
2021/01/05 10:49:25;;;;;;;19.98;12.52;;;3.80;99.90;;;;;;4980462;28;20684;-81
2021/01/05 10:51:52;;;;;;;22.88;13.32;;;3.80;99.90;;;;;;4975249;28;20197;-78
2021/01/05 10:54:20;;;;;;;23.02;13.85;;;3.80;99.90;;;;;;4964570;28;20198;-77
2021/01/05 10:56:46;;;;;;;21.30;12.98;;;3.80;99.90;;;;;;4976706;28;20178;-77
2021/01/05 10:59:15;;;;;;;18.30;12.32;;;3.70;99.90;;;;;;4974495;28;20719;-78
2021/01/05 11:01:41;;;;;;;20.65;12.98;;;3.80;99.90;;;;;;4974192;28;20278;-77
2021/01/05 11:04:06;;;;;;;21.38;12.77;;;3.80;99.90;;;;;;4972219;28;20289;-77
2021/01/05 11:06:32;;;;;;;23.17;13.88;;;3.70;99.90;;;;;;4973770;28;20253;-78
2021/01/05 11:08:58;;;;;;;17.25;12.20;;;3.80;99.90;;;;;;4989039;28;20237;-75
2021/01/05 11:11:24;;;;;;;21.52;13.02;;;3.80;99.90;;;;;;4973187;28;20182;-76
2021/01/05 11:13:50;;;;;;;19.25;13.02;;;3.80;99.90;;;;;;4974652;28;20202;-75
2021/01/05 11:16:16;;;;;;;17.90;12.43;;;3.90;99.90;;;;;;4974503;28;20281;-74
2021/01/05 11:18:45;;;;;;;20.02;13.65;;;3.80;99.90;;;;;;4975226;28;20300;-75
2021/01/05 11:21:15;;;;;;;22.20;13.23;;;3.90;99.90;;;;;;4977290;28;20706;-74
2021/01/05 11:23:41;;;;;;;19.73;12.68;;;3.90;99.90;;;;;;4994889;28;20277;-74
2021/01/05 11:26:11;;;;;;;23.38;13.30;;;3.90;99.90;;;;;;4984922;28;20233;-75
2021/01/05 11:28:37;;;;;;;19.63;13.23;;;3.90;99.90;;;;;;4975885;28;20195;-74
2021/01/05 11:31:05;;;;;;;19.27;13.95;;;3.90;99.90;;;;;;4976384;28;20190;-75
2021/01/05 11:33:31;;;;;;;20.10;13.18;;;3.90;99.90;;;;;;4988942;28;20198;-76
2021/01/05 11:35:58;;;;;;;20.42;13.27;;;3.90;99.90;;;;;;4978275;28;20205;-75
2021/01/05 11:38:24;;;;;;;17.23;12.38;;;3.90;99.90;;;;;;4974250;28;20200;-78
2021/01/05 11:40:50;;;;;;;18.73;12.77;;;3.90;99.90;;;;;;4977943;28;20182;-80
2021/01/05 11:43:16;;;;;;;21.88;13.57;;;3.90;99.90;;;;;;4994837;28;20241;-77
2021/01/05 11:45:41;;;;;;;21.30;13.73;;;3.90;99.90;;;;;;4978170;28;20707;-77
2021/01/05 11:48:07;;;;;;;18.17;13.07;;;3.90;99.90;;;;;;4995072;28;20194;-76
2021/01/05 11:50:33;;;;;;;20.90;13.65;;;3.90;99.90;;;;;;4977760;28;20177;-76
2021/01/05 11:52:59;;;;;;;19.77;13.05;;;4.00;99.90;;;;;;4980357;28;20177;-76
2021/01/05 11:55:25;;;;;;;21.23;14.05;;;3.90;99.90;;;;;;4958192;28;20270;-76
2021/01/05 11:57:51;;;;;;;20.75;14.52;;;3.90;99.90;;;;;;4958337;28;20182;-76
2021/01/05 12:00:19;;;;;;;22.00;15.18;;;4.00;99.90;;;;;;4964301;28;20225;-76
2021/01/05 12:02:45;;;;;;;21.95;16.20;;;3.90;99.90;;;;;;4988806;28;20305;-76
2021/01/05 12:05:14;;;;;;;21.90;15.93;;;3.90;99.90;;;;;;4995111;28;20257;-76
2021/01/05 12:07:41;;;;;;;24.73;15.43;;;3.90;99.90;;;;;;4994797;28;20189;-76
2021/01/05 12:10:08;;;;;;;26.17;16.75;;;4.00;99.90;;;;;;4976892;28;20241;-78
2021/01/05 12:12:33;;;;;;;24.67;16.13;;;4.00;99.90;;;;;;4977317;28;20181;-78
2021/01/05 12:14:59;;;;;;;26.60;17.40;;;4.00;99.90;;;;;;4977434;28;20198;-80
2021/01/05 12:17:26;;;;;;;26.67;16.75;;;3.90;99.90;;;;;;4977700;28;20551;-76
2021/01/05 12:19:52;;;;;;;24.80;17.20;;;4.00;99.90;;;;;;4995298;28;20264;-76
2021/01/05 12:22:18;;;;;;;27.10;17.98;;;3.90;99.90;;;;;;4987772;28;20172;-77
2021/01/05 12:24:45;;;;;;;31.23;20.40;;;3.90;99.90;;;;;;4963241;28;20281;-79
2021/01/05 12:27:12;;;;;;;30.17;18.50;;;3.90;99.90;;;;;;4958667;28;20178;-78
2021/01/05 12:29:41;;;;;;;30.98;19.13;;;3.90;99.90;;;;;;4977001;28;20197;-77
2021/01/05 12:32:13;;;;;;;32.88;19.73;;;3.90;99.90;;;;;;4960917;28;20191;-76
2021/01/05 12:34:44;;;;;;;31.98;20.20;;;3.90;99.90;;;;;;4975143;28;20201;-75
2021/01/05 12:37:16;;;;;;;29.98;19.20;;;4.00;99.90;;;;;;4975239;28;20181;-76
2021/01/05 12:39:42;;;;;;;29.27;17.70;;;3.90;99.90;;;;;;4957828;28;20236;-78
2021/01/05 12:42:20;;;;;;;28.05;18.42;;;3.90;99.90;;;;;;4965355;28;20178;-77
2021/01/05 12:44:47;;;;;;;32.20;20.00;;;3.90;99.90;;;;;;4982630;28;20192;-76
2021/01/05 12:47:13;;;;;;;32.30;19.88;;;3.90;99.90;;;;;;4983713;28;20252;-77
2021/01/05 12:49:39;;;;;;;34.25;19.42;;;3.90;99.90;;;;;;4965730;28;20212;-77
2021/01/05 12:52:09;;;;;;;34.08;19.95;;;3.90;99.90;;;;;;4967429;28;20636;-77
2021/01/05 12:54:35;;;;;;;33.08;20.48;;;3.90;99.90;;;;;;4984686;28;20218;-77
2021/01/05 12:57:03;;;;;;;33.92;20.35;;;3.90;99.90;;;;;;4963200;28;20269;-76
2021/01/05 12:59:29;;;;;;;33.85;20.83;;;3.90;99.90;;;;;;4962076;28;20218;-78
2021/01/05 13:02:00;;;;;;;33.75;20.40;;;3.90;99.90;;;;;;4967321;28;20170;-77
2021/01/05 13:04:26;;;;;;;30.42;19.55;;;3.90;99.90;;;;;;4967419;28;20205;-76
2021/01/05 13:06:56;;;;;;;31.00;19.58;;;3.90;99.90;;;;;;4980442;28;20202;-77
2021/01/05 13:09:22;;;;;;;32.08;19.50;;;3.90;99.90;;;;;;4956711;28;20700;-77
2021/01/05 13:11:48;;;;;;;30.65;18.40;;;3.90;99.90;;;;;;4974185;28;20325;-76
2021/01/05 13:14:17;;;;;;;29.38;19.08;;;3.90;99.90;;;;;;4974432;28;20615;-77
2021/01/05 13:16:42;;;;;;;27.88;17.88;;;4.00;99.90;;;;;;4958985;28;20237;-75
2021/01/05 13:19:15;;;;;;;29.88;18.17;;;3.90;99.90;;;;;;4974406;28;20213;-78
2021/01/05 13:21:47;;;;;;;31.70;19.30;;;3.90;99.90;;;;;;4964965;28;20528;-79
2021/01/05 13:24:14;;;;;;;27.88;17.98;;;4.00;99.90;;;;;;4966219;28;20571;-78
2021/01/05 13:26:41;;;;;;;31.83;19.27;;;4.00;99.90;;;;;;4979504;28;20232;-77
2021/01/05 13:29:07;;;;;;;35.00;20.23;;;3.90;99.90;;;;;;4982761;28;20201;-77
2021/01/05 13:31:40;;;;;;;31.10;19.88;;;3.90;99.90;;;;;;4975091;28;20641;-76
2021/01/05 13:34:07;;;;;;;31.90;20.00;;;4.00;99.90;;;;;;4984369;28;20194;-76
2021/01/05 13:36:34;;;;;;;31.15;20.05;;;4.00;99.90;;;;;;4992269;28;20257;-77
2021/01/05 13:38:59;;;;;;;33.75;20.27;;;4.00;99.90;;;;;;4974591;28;20213;-76
2021/01/05 13:41:30;;;;;;;36.08;19.35;;;4.00;99.90;;;;;;4993005;28;20180;-77
2021/01/05 13:43:57;;;;;;;33.17;19.25;;;3.90;99.90;;;;;;4992687;28;20196;-76
2021/01/05 13:46:25;;;;;;;30.13;19.17;;;4.00;99.90;;;;;;4989662;28;20220;-75
2021/01/05 13:48:51;;;;;;;34.38;20.38;;;4.00;99.90;;;;;;4974233;28;20208;-77
2021/01/05 13:51:23;;;;;;;29.65;17.95;;;4.00;99.90;;;;;;4981982;28;20178;-76
2021/01/05 13:53:49;;;;;;;33.00;18.90;;;3.90;99.90;;;;;;4982224;28;20299;-76
2021/01/05 13:56:15;;;;;;;32.72;19.70;;;4.00;99.90;;;;;;4988958;28;20178;-76
2021/01/05 13:58:41;;;;;;;33.85;19.50;;;4.00;99.90;;;;;;4974345;28;20213;-76
2021/01/05 14:01:12;;;;;;;30.02;19.05;;;4.00;99.90;;;;;;4992846;28;20678;-76
2021/01/05 14:03:38;;;;;;;31.50;20.23;;;4.00;99.90;;;;;;4975409;28;20205;-76
2021/01/05 14:06:03;;;;;;;37.33;20.00;;;4.00;99.90;;;;;;4992764;28;20181;-77
2021/01/05 14:08:29;;;;;;;30.65;19.00;;;4.00;99.90;;;;;;4974713;28;20260;-77
2021/01/05 14:10:55;;;;;;;32.05;18.90;;;4.00;99.90;;;;;;4992575;28;20644;-77
2021/01/05 14:13:20;;;;;;;35.55;19.55;;;4.00;99.90;;;;;;4975535;28;20202;-77
2021/01/05 14:15:46;;;;;;;34.95;19.20;;;4.00;99.90;;;;;;4992857;28;20181;-77
2021/01/05 14:18:12;;;;;;;33.20;19.13;;;4.00;99.90;;;;;;4975329;28;20660;-77
2021/01/05 14:20:38;;;;;;;33.05;20.35;;;4.00;99.90;;;;;;4959511;28;20214;-77
2021/01/05 14:23:03;;;;;;;29.33;19.52;;;4.00;99.90;;;;;;4973136;28;20238;-78
2021/01/05 14:25:30;;;;;;;31.17;19.58;;;4.00;99.90;;;;;;4960778;28;20265;-78
2021/01/05 14:27:55;;;;;;;35.58;20.55;;;4.00;99.90;;;;;;4982158;28;20668;-77
2021/01/05 14:30:21;;;;;;;30.48;19.92;;;4.00;99.90;;;;;;4982046;28;20181;-77
2021/01/05 14:32:49;;;;;;;33.42;21.58;;;4.00;99.90;;;;;;4983543;28;20190;-77
2021/01/05 14:35:15;;;;;;;37.83;21.42;;;4.00;99.90;;;;;;4972652;28;20173;-79
2021/01/05 14:37:41;;;;;;;36.63;21.92;;;4.10;99.90;;;;;;4974825;28;20178;-78
2021/01/05 14:40:08;;;;;;;35.25;20.63;;;4.00;99.90;;;;;;4974640;28;20228;-78
2021/01/05 14:42:33;;;;;;;36.25;21.13;;;4.00;99.90;;;;;;4992141;28;20170;-78
2021/01/05 14:44:59;;;;;;;36.72;22.33;;;4.00;99.90;;;;;;4974878;28;20221;-78
2021/01/05 14:47:25;;;;;;;38.22;22.10;;;4.00;99.90;;;;;;4992482;28;20272;-78
2021/01/05 14:49:51;;;;;;;34.80;20.33;;;4.10;99.90;;;;;;4992166;28;20739;-78
2021/01/05 14:52:23;;;;;;;38.22;21.55;;;4.00;99.90;;;;;;4974886;28;20271;-77
2021/01/05 14:54:50;;;;;;;32.47;19.73;;;4.00;99.90;;;;;;4994782;28;20687;-76
2021/01/05 14:57:16;;;;;;;36.35;20.73;;;4.00;99.90;;;;;;4970109;28;20221;-78
2021/01/05 14:59:42;;;;;;;35.95;20.23;;;4.00;99.90;;;;;;4967955;28;20221;-77
2021/01/05 15:02:13;;;;;;;36.67;19.63;;;3.90;99.90;;;;;;4986105;28;20177;-78
2021/01/05 15:04:39;;;;;;;32.70;19.52;;;4.00;99.90;;;;;;4969269;28;20240;-77
2021/01/05 15:07:05;;;;;;;36.88;20.67;;;4.00;99.90;;;;;;4961281;28;20528;-75
2021/01/05 15:09:31;;;;;;;34.15;19.92;;;4.00;99.90;;;;;;4976210;28;20226;-76
2021/01/05 15:11:58;;;;;;;37.47;20.17;;;4.00;99.90;;;;;;4965613;28;20186;-77
2021/01/05 15:14:26;;;;;;;32.90;18.65;;;4.00;99.90;;;;;;4967719;28;20242;-75
2021/01/05 15:16:52;;;;;;;36.53;19.50;;;4.00;99.90;;;;;;4985003;28;20170;-78
2021/01/05 15:19:20;;;;;;;32.75;19.33;;;3.90;99.90;;;;;;4969270;28;20194;-77
2021/01/05 15:21:46;;;;;;;31.10;19.65;;;4.00;99.90;;;;;;4985323;28;20175;-77
2021/01/05 15:24:13;;;;;;;33.70;18.83;;;4.00;99.90;;;;;;4966696;28;20556;-78
2021/01/05 15:26:40;;;;;;;37.28;21.20;;;4.00;99.90;;;;;;4985175;28;20181;-77
2021/01/05 15:29:06;;;;;;;32.42;19.77;;;4.00;99.90;;;;;;4968946;28;20194;-75
2021/01/05 15:31:43;;;;;;;34.75;20.33;;;4.00;99.90;;;;;;4966804;28;20626;-78
2021/01/05 15:34:11;;;;;;;32.42;19.40;;;4.00;99.90;;;;;;4966843;28;20201;-77
2021/01/05 15:36:37;;;;;;;32.22;19.38;;;3.90;99.90;;;;;;4968182;28;20636;-76
2021/01/05 15:39:07;;;;;;;30.60;18.10;;;3.90;99.90;;;;;;4967998;28;20248;-77
2021/01/05 15:41:33;;;;;;;35.00;20.67;;;3.90;99.90;;;;;;4984423;28;20225;-76
2021/01/05 15:43:58;;;;;;;31.67;19.25;;;3.90;99.90;;;;;;4965593;28;20755;-78
2021/01/05 15:46:27;;;;;;;35.58;19.88;;;3.90;99.90;;;;;;4963578;28;20183;-77
2021/01/05 15:48:54;;;;;;;34.88;17.77;;;3.90;99.90;;;;;;4958426;28;20202;-78
2021/01/05 15:51:20;;;;;;;33.70;19.00;;;3.90;99.90;;;;;;4975995;28;20178;-78
2021/01/05 15:53:50;;;;;;;29.25;18.70;;;4.00;99.90;;;;;;4975603;28;20201;-78
2021/01/05 15:56:19;;;;;;;36.28;19.85;;;4.00;99.90;;;;;;4976216;28;20170;-77
2021/01/05 15:58:45;;;;;;;29.45;18.00;;;3.90;99.90;;;;;;4985447;28;20241;-78
2021/01/05 16:01:13;;;;;;;34.25;19.67;;;3.90;99.90;;;;;;4978491;28;20664;-77
2021/01/05 16:03:39;;;;;;;32.13;18.67;;;3.90;99.90;;;;;;4967770;28;20198;-79
2021/01/05 16:06:21;;;;;;;34.53;19.70;;;3.90;99.90;;;;;;4966414;28;20189;-79
2021/01/05 16:08:49;;;;;;;34.80;19.25;;;3.90;99.90;;;;;;4975763;28;20265;-76
2021/01/05 16:11:14;;;;;;;32.13;18.38;;;3.90;99.90;;;;;;4974948;28;20183;-75
2021/01/05 16:13:40;;;;;;;33.30;18.00;;;3.90;99.90;;;;;;4966611;28;20185;-79
2021/01/05 16:16:06;;;;;;;27.52;17.48;;;4.00;99.90;;;;;;4958018;28;20182;-78
2021/01/05 16:18:32;;;;;;;31.38;18.60;;;3.90;99.90;;;;;;4975465;28;20190;-78
2021/01/05 16:20:59;;;;;;;31.65;19.27;;;3.90;99.90;;;;;;4963248;28;20656;-78
2021/01/05 16:23:24;;;;;;;33.90;18.70;;;3.90;99.90;;;;;;4994550;28;20209;-77
2021/01/05 16:25:50;;;;;;;34.15;19.25;;;3.90;99.90;;;;;;4964033;28;20179;-78
2021/01/05 16:28:16;;;;;;;31.45;18.63;;;3.90;99.90;;;;;;4958001;28;20215;-76
2021/01/05 16:30:42;;;;;;;28.60;17.25;;;3.90;99.90;;;;;;4975236;28;20171;-75
2021/01/05 16:33:08;;;;;;;30.77;18.40;;;3.90;99.90;;;;;;4990125;28;20250;-75
2021/01/05 16:35:34;;;;;;;31.35;18.38;;;3.90;99.90;;;;;;4977175;28;20205;-75
2021/01/05 16:38:00;;;;;;;32.20;18.08;;;3.90;99.90;;;;;;4967140;28;20549;-75
2021/01/05 16:40:31;;;;;;;34.25;19.13;;;3.90;99.90;;;;;;4976731;28;20245;-74
2021/01/05 16:42:57;;;;;;;36.72;19.60;;;3.90;99.90;;;;;;4984685;28;20184;-75
2021/01/05 16:45:24;;;;;;;34.95;18.98;;;3.90;99.90;;;;;;4970086;28;20178;-75
2021/01/05 16:47:50;;;;;;;30.33;18.70;;;3.90;99.90;;;;;;4989942;28;20174;-76
2021/01/05 16:50:23;;;;;;;35.00;20.05;;;3.90;99.90;;;;;;4983816;28;20171;-76